sensor_id;sensor_type;location;lat;lon;timestamp;temperature;humidity
68189;DHT22;66299;47.514;19.218;2023-04-29T00:00:20;10.49;84.42
68189;DHT22;66299;47.514;19.218;2023-04-29T00:02:49;10.42;83.60
68189;DHT22;66299;47.514;19.218;2023-04-29T00:05:18;10.49;82.97
68189;DHT22;66299;47.514;19.218;2023-04-29T00:07:47;10.53;81.92
68189;DHT22;66299;47.514;19.218;2023-04-29T00:10:16;10.52;81.98
68189;DHT22;66299;47.514;19.218;2023-04-29T00:12:46;10.53;81.62
68189;DHT22;66299;47.514;19.218;2023-04-29T00:15:16;10.52;83.03
68189;DHT22;66299;47.514;19.218;2023-04-29T00:17:45;10.50;81.64
68189;DHT22;66299;47.514;19.218;2023-04-29T00:20:14;10.40;83.95
68189;DHT22;66299;47.514;19.218;2023-04-29T00:22:43;10.43;82.87
68189;DHT22;66299;47.514;19.218;2023-04-29T00:25:15;10.32;84.89
68189;DHT22;66299;47.514;19.218;2023-04-29T00:27:44;10.33;84.52
68189;DHT22;66299;47.514;19.218;2023-04-29T00:30:14;10.26;84.34
68189;DHT22;66299;47.514;19.218;2023-04-29T00:32:43;10.32;83.38
68189;DHT22;66299;47.514;19.218;2023-04-29T00:35:14;10.36;83.88
68189;DHT22;66299;47.514;19.218;2023-04-29T00:37:45;10.32;83.59
68189;DHT22;66299;47.514;19.218;2023-04-29T00:40:15;10.33;83.30
68189;DHT22;66299;47.514;19.218;2023-04-29T00:42:43;10.36;83.36
68189;DHT22;66299;47.514;19.218;2023-04-29T00:45:14;10.40;82.15
68189;DHT22;66299;47.514;19.218;2023-04-29T00:47:44;10.40;81.12
68189;DHT22;66299;47.514;19.218;2023-04-29T00:50:15;10.50;81.34
68189;DHT22;66299;47.514;19.218;2023-04-29T00:52:43;10.49;81.29
68189;DHT22;66299;47.514;19.218;2023-04-29T00:55:11;10.49;80.34
68189;DHT22;66299;47.514;19.218;2023-04-29T00:57:41;10.50;80.31
68189;DHT22;66299;47.514;19.218;2023-04-29T01:00:10;10.46;80.59
68189;DHT22;66299;47.514;19.218;2023-04-29T01:02:43;10.47;79.58
68189;DHT22;66299;47.514;19.218;2023-04-29T01:05:12;10.47;79.37
68189;DHT22;66299;47.514;19.218;2023-04-29T01:07:44;10.50;78.94
68189;DHT22;66299;47.514;19.218;2023-04-29T01:10:18;10.52;78.85
68189;DHT22;66299;47.514;19.218;2023-04-29T01:12:49;10.53;78.43
68189;DHT22;66299;47.514;19.218;2023-04-29T01:15:22;10.57;78.57
68189;DHT22;66299;47.514;19.218;2023-04-29T01:17:58;10.57;78.57
68189;DHT22;66299;47.514;19.218;2023-04-29T01:20:32;10.60;78.59
68189;DHT22;66299;47.514;19.218;2023-04-29T01:23:01;10.64;78.60
68189;DHT22;66299;47.514;19.218;2023-04-29T01:25:35;10.68;77.63
68189;DHT22;66299;47.514;19.218;2023-04-29T01:28:05;10.57;78.64
68189;DHT22;66299;47.514;19.218;2023-04-29T01:30:41;10.57;78.92
68189;DHT22;66299;47.514;19.218;2023-04-29T01:33:15;10.61;78.27
68189;DHT22;66299;47.514;19.218;2023-04-29T01:35:49;10.63;78.25
68189;DHT22;66299;47.514;19.218;2023-04-29T01:38:22;10.64;77.23
68189;DHT22;66299;47.514;19.218;2023-04-29T01:40:59;10.71;76.44
68189;DHT22;66299;47.514;19.218;2023-04-29T01:43:29;10.75;76.23
68189;DHT22;66299;47.514;19.218;2023-04-29T01:46:00;10.75;77.48
68189;DHT22;66299;47.514;19.218;2023-04-29T01:48:31;10.64;77.31
68189;DHT22;66299;47.514;19.218;2023-04-29T01:51:01;10.64;78.07
68189;DHT22;66299;47.514;19.218;2023-04-29T01:53:31;10.59;78.63
68189;DHT22;66299;47.514;19.218;2023-04-29T01:56:03;10.52;78.70
68189;DHT22;66299;47.514;19.218;2023-04-29T01:58:31;10.52;79.43
68189;DHT22;66299;47.514;19.218;2023-04-29T02:01:00;10.43;80.23
68189;DHT22;66299;47.514;19.218;2023-04-29T02:03:29;10.47;79.10
68189;DHT22;66299;47.514;19.218;2023-04-29T02:05:58;10.46;80.10
68189;DHT22;66299;47.514;19.218;2023-04-29T02:08:28;10.44;80.44
68189;DHT22;66299;47.514;19.218;2023-04-29T02:10:57;10.42;79.11
68189;DHT22;66299;47.514;19.218;2023-04-29T02:13:30;10.40;78.80
68189;DHT22;66299;47.514;19.218;2023-04-29T02:16:05;10.43;79.65
68189;DHT22;66299;47.514;19.218;2023-04-29T02:18:34;10.43;78.30
68189;DHT22;66299;47.514;19.218;2023-04-29T02:21:02;10.37;79.62
68189;DHT22;66299;47.514;19.218;2023-04-29T02:23:31;10.43;78.16
68189;DHT22;66299;47.514;19.218;2023-04-29T02:26:02;10.39;79.14
68189;DHT22;66299;47.514;19.218;2023-04-29T02:28:37;10.37;78.91
68189;DHT22;66299;47.514;19.218;2023-04-29T02:31:06;10.42;78.79
68189;DHT22;66299;47.514;19.218;2023-04-29T02:33:35;10.40;78.61
68189;DHT22;66299;47.514;19.218;2023-04-29T02:36:04;10.40;78.13
68189;DHT22;66299;47.514;19.218;2023-04-29T02:38:33;10.44;78.53
68189;DHT22;66299;47.514;19.218;2023-04-29T02:41:02;10.46;77.77
68189;DHT22;66299;47.514;19.218;2023-04-29T02:43:32;10.44;77.52
68189;DHT22;66299;47.514;19.218;2023-04-29T02:46:03;10.44;78.27
68189;DHT22;66299;47.514;19.218;2023-04-29T02:48:31;10.43;78.00
68189;DHT22;66299;47.514;19.218;2023-04-29T02:51:01;10.49;77.47
68189;DHT22;66299;47.514;19.218;2023-04-29T02:53:31;10.44;77.36
68189;DHT22;66299;47.514;19.218;2023-04-29T02:56:01;10.46;77.22
68189;DHT22;66299;47.514;19.218;2023-04-29T02:58:33;10.52;77.78
68189;DHT22;66299;47.514;19.218;2023-04-29T03:01:03;10.50;77.55
68189;DHT22;66299;47.514;19.218;2023-04-29T03:03:32;10.53;76.66
68189;DHT22;66299;47.514;19.218;2023-04-29T03:06:01;10.46;76.67
68189;DHT22;66299;47.514;19.218;2023-04-29T03:08:29;10.47;76.90
68189;DHT22;66299;47.514;19.218;2023-04-29T03:10:59;10.44;78.14
68189;DHT22;66299;47.514;19.218;2023-04-29T03:13:30;10.46;77.75
68189;DHT22;66299;47.514;19.218;2023-04-29T03:15:59;10.46;77.87
68189;DHT22;66299;47.514;19.218;2023-04-29T03:18:29;10.44;78.30
68189;DHT22;66299;47.514;19.218;2023-04-29T03:20:59;10.43;77.83
68189;DHT22;66299;47.514;19.218;2023-04-29T03:23:27;10.39;77.05
68189;DHT22;66299;47.514;19.218;2023-04-29T03:25:56;10.43;78.07
68189;DHT22;66299;47.514;19.218;2023-04-29T03:28:25;10.46;77.42
68189;DHT22;66299;47.514;19.218;2023-04-29T03:30:54;10.36;77.41
68189;DHT22;66299;47.514;19.218;2023-04-29T03:33:25;10.42;76.82
68189;DHT22;66299;47.514;19.218;2023-04-29T03:35:55;10.46;75.49
68189;DHT22;66299;47.514;19.218;2023-04-29T03:38:23;10.52;76.03
68189;DHT22;66299;47.514;19.218;2023-04-29T03:40:51;10.50;76.63
68189;DHT22;66299;47.514;19.218;2023-04-29T03:43:21;10.49;75.82
68189;DHT22;66299;47.514;19.218;2023-04-29T03:45:49;10.50;74.67
68189;DHT22;66299;47.514;19.218;2023-04-29T03:48:20;10.53;74.78
68189;DHT22;66299;47.514;19.218;2023-04-29T03:50:49;10.53;74.52
68189;DHT22;66299;47.514;19.218;2023-04-29T03:53:19;10.53;72.85
68189;DHT22;66299;47.514;19.218;2023-04-29T03:55:49;10.59;73.43
68189;DHT22;66299;47.514;19.218;2023-04-29T03:58:19;10.64;73.02
68189;DHT22;66299;47.514;19.218;2023-04-29T04:00:47;10.67;71.02
68189;DHT22;66299;47.514;19.218;2023-04-29T04:03:15;10.74;70.68
68189;DHT22;66299;47.514;19.218;2023-04-29T04:05:44;10.73;72.03
68189;DHT22;66299;47.514;19.218;2023-04-29T04:08:13;10.77;71.02
68189;DHT22;66299;47.514;19.218;2023-04-29T04:10:42;10.82;71.18
68189;DHT22;66299;47.514;19.218;2023-04-29T04:13:11;10.85;70.23
68189;DHT22;66299;47.514;19.218;2023-04-29T04:15:40;10.82;70.13
68189;DHT22;66299;47.514;19.218;2023-04-29T04:18:09;10.85;69.28
68189;DHT22;66299;47.514;19.218;2023-04-29T04:20:41;10.90;70.04
68189;DHT22;66299;47.514;19.218;2023-04-29T04:23:10;10.87;71.25
68189;DHT22;66299;47.514;19.218;2023-04-29T04:25:45;10.85;69.82
68189;DHT22;66299;47.514;19.218;2023-04-29T04:28:16;10.87;70.32
68189;DHT22;66299;47.514;19.218;2023-04-29T04:30:45;10.85;71.35
68189;DHT22;66299;47.514;19.218;2023-04-29T04:33:14;10.90;70.89
68189;DHT22;66299;47.514;19.218;2023-04-29T04:35:44;10.90;70.56
68189;DHT22;66299;47.514;19.218;2023-04-29T04:38:14;10.80;73.14
68189;DHT22;66299;47.514;19.218;2023-04-29T04:40:42;10.67;75.03
68189;DHT22;66299;47.514;19.218;2023-04-29T04:43:20;10.56;79.96
68189;DHT22;66299;47.514;19.218;2023-04-29T04:45:48;10.22;80.58
68189;DHT22;66299;47.514;19.218;2023-04-29T04:48:17;10.19;83.79
68189;DHT22;66299;47.514;19.218;2023-04-29T04:50:46;9.99;84.09
68189;DHT22;66299;47.514;19.218;2023-04-29T04:53:15;9.95;82.92
68189;DHT22;66299;47.514;19.218;2023-04-29T04:55:43;9.89;82.16
68189;DHT22;66299;47.514;19.218;2023-04-29T04:58:12;9.92;84.33
68189;DHT22;66299;47.514;19.218;2023-04-29T05:00:44;9.86;83.39
68189;DHT22;66299;47.514;19.218;2023-04-29T05:03:12;9.82;82.47
68189;DHT22;66299;47.514;19.218;2023-04-29T05:05:41;9.89;82.71
68189;DHT22;66299;47.514;19.218;2023-04-29T05:08:11;9.94;81.15
68189;DHT22;66299;47.514;19.218;2023-04-29T05:10:40;10.03;82.96
68189;DHT22;66299;47.514;19.218;2023-04-29T05:13:10;10.06;81.68
68189;DHT22;66299;47.514;19.218;2023-04-29T05:15:39;10.13;82.89
68189;DHT22;66299;47.514;19.218;2023-04-29T05:18:09;10.28;81.60
68189;DHT22;66299;47.514;19.218;2023-04-29T05:20:38;10.47;81.46
68189;DHT22;66299;47.514;19.218;2023-04-29T05:23:15;10.70;81.43
68189;DHT22;66299;47.514;19.218;2023-04-29T05:25:45;10.78;80.22
68189;DHT22;66299;47.514;19.218;2023-04-29T05:28:13;10.82;79.33
68189;DHT22;66299;47.514;19.218;2023-04-29T05:30:43;10.78;79.96
68189;DHT22;66299;47.514;19.218;2023-04-29T05:33:16;10.84;77.82
68189;DHT22;66299;47.514;19.218;2023-04-29T05:35:46;10.82;79.65
68189;DHT22;66299;47.514;19.218;2023-04-29T05:38:14;10.88;78.71
68189;DHT22;66299;47.514;19.218;2023-04-29T05:40:43;10.87;79.26
68189;DHT22;66299;47.514;19.218;2023-04-29T05:43:11;10.88;77.77
68189;DHT22;66299;47.514;19.218;2023-04-29T05:45:41;10.87;77.39
68189;DHT22;66299;47.514;19.218;2023-04-29T05:48:09;10.90;75.98
68189;DHT22;66299;47.514;19.218;2023-04-29T05:50:38;11.07;76.21
68189;DHT22;66299;47.514;19.218;2023-04-29T05:53:07;11.00;75.25
68189;DHT22;66299;47.514;19.218;2023-04-29T05:55:38;11.07;75.31
68189;DHT22;66299;47.514;19.218;2023-04-29T05:58:11;11.09;77.58
68189;DHT22;66299;47.514;19.218;2023-04-29T06:00:41;11.09;76.74
68189;DHT22;66299;47.514;19.218;2023-04-29T06:03:12;11.05;76.81
68189;DHT22;66299;47.514;19.218;2023-04-29T06:05:42;11.09;76.52
68189;DHT22;66299;47.514;19.218;2023-04-29T06:08:13;11.11;75.63
68189;DHT22;66299;47.514;19.218;2023-04-29T06:10:42;11.14;74.57
68189;DHT22;66299;47.514;19.218;2023-04-29T06:13:13;11.09;74.59
68189;DHT22;66299;47.514;19.218;2023-04-29T06:15:42;11.16;74.92
68189;DHT22;66299;47.514;19.218;2023-04-29T06:18:11;11.28;74.80
68189;DHT22;66299;47.514;19.218;2023-04-29T06:20:40;11.21;74.87
68189;DHT22;66299;47.514;19.218;2023-04-29T06:23:12;11.19;74.79
68189;DHT22;66299;47.514;19.218;2023-04-29T06:25:41;11.14;74.96
68189;DHT22;66299;47.514;19.218;2023-04-29T06:28:09;11.12;74.80
68189;DHT22;66299;47.514;19.218;2023-04-29T06:30:39;11.08;74.36
68189;DHT22;66299;47.514;19.218;2023-04-29T06:33:11;11.05;74.27
68189;DHT22;66299;47.514;19.218;2023-04-29T06:35:40;11.16;73.67
68189;DHT22;66299;47.514;19.218;2023-04-29T06:38:09;11.12;74.54
68189;DHT22;66299;47.514;19.218;2023-04-29T06:40:40;11.12;74.57
68189;DHT22;66299;47.514;19.218;2023-04-29T06:43:12;11.19;75.74
68189;DHT22;66299;47.514;19.218;2023-04-29T06:45:44;11.35;75.17
68189;DHT22;66299;47.514;19.218;2023-04-29T06:48:12;11.28;73.16
68189;DHT22;66299;47.514;19.218;2023-04-29T06:50:52;11.32;74.05
68189;DHT22;66299;47.514;19.218;2023-04-29T06:53:23;11.42;73.71
68189;DHT22;66299;47.514;19.218;2023-04-29T06:55:55;11.52;73.84
68189;DHT22;66299;47.514;19.218;2023-04-29T06:58:24;11.59;72.54
68189;DHT22;66299;47.514;19.218;2023-04-29T07:00:53;11.63;72.96
68189;DHT22;66299;47.514;19.218;2023-04-29T07:03:25;11.76;73.21
68189;DHT22;66299;47.514;19.218;2023-04-29T07:05:55;11.77;72.51
68189;DHT22;66299;47.514;19.218;2023-04-29T07:08:24;11.87;71.57
68189;DHT22;66299;47.514;19.218;2023-04-29T07:10:56;11.94;72.76
68189;DHT22;66299;47.514;19.218;2023-04-29T07:13:27;11.98;73.53
68189;DHT22;66299;47.514;19.218;2023-04-29T07:15:56;12.04;72.13
68189;DHT22;66299;47.514;19.218;2023-04-29T07:18:25;12.15;71.27
68189;DHT22;66299;47.514;19.218;2023-04-29T07:20:53;12.29;71.83
68189;DHT22;66299;47.514;19.218;2023-04-29T07:23:22;12.38;69.88
68189;DHT22;66299;47.514;19.218;2023-04-29T07:25:50;12.50;69.89
68189;DHT22;66299;47.514;19.218;2023-04-29T07:28:23;12.59;69.38
68189;DHT22;66299;47.514;19.218;2023-04-29T07:30:52;12.59;69.59
68189;DHT22;66299;47.514;19.218;2023-04-29T07:33:21;12.57;68.88
68189;DHT22;66299;47.514;19.218;2023-04-29T07:35:52;12.70;69.66
68189;DHT22;66299;47.514;19.218;2023-04-29T07:38:23;12.53;69.01
68189;DHT22;66299;47.514;19.218;2023-04-29T07:40:51;12.56;68.31
68189;DHT22;66299;47.514;19.218;2023-04-29T07:43:23;12.50;68.83
68189;DHT22;66299;47.514;19.218;2023-04-29T07:45:52;12.55;69.08
68189;DHT22;66299;47.514;19.218;2023-04-29T07:48:23;12.57;68.03
68189;DHT22;66299;47.514;19.218;2023-04-29T07:50:59;12.60;68.17
68189;DHT22;66299;47.514;19.218;2023-04-29T07:53:29;12.70;69.02
68189;DHT22;66299;47.514;19.218;2023-04-29T07:55:59;12.75;67.28
68189;DHT22;66299;47.514;19.218;2023-04-29T07:58:33;13.03;67.70
68189;DHT22;66299;47.514;19.218;2023-04-29T08:01:06;13.10;67.13
68189;DHT22;66299;47.514;19.218;2023-04-29T08:03:40;13.17;66.53
68189;DHT22;66299;47.514;19.218;2023-04-29T08:06:10;13.11;65.01
68189;DHT22;66299;47.514;19.218;2023-04-29T08:08:40;13.13;65.93
68189;DHT22;66299;47.514;19.218;2023-04-29T08:11:14;13.38;65.17
68189;DHT22;66299;47.514;19.218;2023-04-29T08:13:46;13.42;66.31
68189;DHT22;66299;47.514;19.218;2023-04-29T08:16:16;13.30;65.10
68189;DHT22;66299;47.514;19.218;2023-04-29T08:18:46;13.34;65.46
68189;DHT22;66299;47.514;19.218;2023-04-29T08:21:17;13.38;64.80
68189;DHT22;66299;47.514;19.218;2023-04-29T08:23:46;13.48;64.81
68189;DHT22;66299;47.514;19.218;2023-04-29T08:26:15;13.72;63.60
68189;DHT22;66299;47.514;19.218;2023-04-29T08:28:54;13.66;64.23
68189;DHT22;66299;47.514;19.218;2023-04-29T08:31:22;13.85;63.03
68189;DHT22;66299;47.514;19.218;2023-04-29T08:33:54;14.28;62.18
68189;DHT22;66299;47.514;19.218;2023-04-29T08:36:24;14.16;61.66
68189;DHT22;66299;47.514;19.218;2023-04-29T08:38:56;14.47;60.74
68189;DHT22;66299;47.514;19.218;2023-04-29T08:41:24;14.72;60.72
68189;DHT22;66299;47.514;19.218;2023-04-29T08:43:58;14.67;59.68
68189;DHT22;66299;47.514;19.218;2023-04-29T08:46:32;14.89;60.40
68189;DHT22;66299;47.514;19.218;2023-04-29T08:49:02;14.88;59.01
68189;DHT22;66299;47.514;19.218;2023-04-29T08:51:34;14.96;57.07
68189;DHT22;66299;47.514;19.218;2023-04-29T08:54:03;14.72;57.45
68189;DHT22;66299;47.514;19.218;2023-04-29T08:56:34;14.68;57.16
68189;DHT22;66299;47.514;19.218;2023-04-29T08:59:05;14.69;58.54
68189;DHT22;66299;47.514;19.218;2023-04-29T09:01:36;14.60;58.03
68189;DHT22;66299;47.514;19.218;2023-04-29T09:04:08;14.75;57.50
68189;DHT22;66299;47.514;19.218;2023-04-29T09:06:42;14.92;58.82
68189;DHT22;66299;47.514;19.218;2023-04-29T09:09:13;14.88;57.18
68189;DHT22;66299;47.514;19.218;2023-04-29T09:11:48;14.77;56.46
68189;DHT22;66299;47.514;19.218;2023-04-29T09:14:19;15.10;56.16
68189;DHT22;66299;47.514;19.218;2023-04-29T09:16:50;15.09;56.55
68189;DHT22;66299;47.514;19.218;2023-04-29T09:19:28;15.19;57.21
68189;DHT22;66299;47.514;19.218;2023-04-29T09:21:59;15.36;56.19
68189;DHT22;66299;47.514;19.218;2023-04-29T09:24:29;15.29;55.54
68189;DHT22;66299;47.514;19.218;2023-04-29T09:26:58;15.22;55.34
68189;DHT22;66299;47.514;19.218;2023-04-29T09:29:32;15.15;56.31
68189;DHT22;66299;47.514;19.218;2023-04-29T09:32:17;15.07;55.78
68189;DHT22;66299;47.514;19.218;2023-04-29T09:34:47;15.26;54.58
68189;DHT22;66299;47.514;19.218;2023-04-29T09:37:22;15.07;53.94
68189;DHT22;66299;47.514;19.218;2023-04-29T09:39:53;15.37;54.30
68189;DHT22;66299;47.514;19.218;2023-04-29T09:42:21;15.49;54.37
68189;DHT22;66299;47.514;19.218;2023-04-29T09:44:55;15.53;54.09
68189;DHT22;66299;47.514;19.218;2023-04-29T09:47:28;15.53;54.93
68189;DHT22;66299;47.514;19.218;2023-04-29T09:50:09;15.68;54.28
68189;DHT22;66299;47.514;19.218;2023-04-29T09:52:41;15.54;53.48
68189;DHT22;66299;47.514;19.218;2023-04-29T09:55:11;15.57;52.81
68189;DHT22;66299;47.514;19.218;2023-04-29T09:57:41;15.60;53.45
68189;DHT22;66299;47.514;19.218;2023-04-29T10:00:14;15.81;52.36
68189;DHT22;66299;47.514;19.218;2023-04-29T10:02:46;16.00;52.11
68189;DHT22;66299;47.514;19.218;2023-04-29T10:05:16;15.94;52.63
68189;DHT22;66299;47.514;19.218;2023-04-29T10:07:45;15.94;53.27
68189;DHT22;66299;47.514;19.218;2023-04-29T10:10:16;16.04;51.88
68189;DHT22;66299;47.514;19.218;2023-04-29T10:12:45;16.43;52.07
68189;DHT22;66299;47.514;19.218;2023-04-29T10:15:19;16.55;52.78
68189;DHT22;66299;47.514;19.218;2023-04-29T10:17:53;16.48;53.20
68189;DHT22;66299;47.514;19.218;2023-04-29T10:20:22;15.84;52.15
68189;DHT22;66299;47.514;19.218;2023-04-29T10:22:53;16.43;54.28
68189;DHT22;66299;47.514;19.218;2023-04-29T10:25:24;16.23;55.19
68189;DHT22;66299;47.514;19.218;2023-04-29T10:27:55;15.82;54.58
68189;DHT22;66299;47.514;19.218;2023-04-29T10:30:26;16.45;54.58
68189;DHT22;66299;47.514;19.218;2023-04-29T10:32:54;16.57;55.23
68189;DHT22;66299;47.514;19.218;2023-04-29T10:35:27;16.71;52.93
68189;DHT22;66299;47.514;19.218;2023-04-29T10:37:56;16.57;52.63
68189;DHT22;66299;47.514;19.218;2023-04-29T10:40:26;16.69;53.86
68189;DHT22;66299;47.514;19.218;2023-04-29T10:43:01;16.74;54.60
68189;DHT22;66299;47.514;19.218;2023-04-29T10:45:32;16.81;54.51
68189;DHT22;66299;47.514;19.218;2023-04-29T10:48:13;16.49;55.02
68189;DHT22;66299;47.514;19.218;2023-04-29T10:53:24;16.95;54.15
68189;DHT22;66299;47.514;19.218;2023-04-29T10:55:56;16.97;54.70
68189;DHT22;66299;47.514;19.218;2023-04-29T10:58:33;16.59;52.93
68189;DHT22;66299;47.514;19.218;2023-04-29T11:01:06;16.59;55.22
68189;DHT22;66299;47.514;19.218;2023-04-29T11:06:37;16.74;53.85
68189;DHT22;66299;47.514;19.218;2023-04-29T11:09:09;17.31;53.36
68189;DHT22;66299;47.514;19.218;2023-04-29T11:11:44;17.31;53.49
68189;DHT22;66299;47.514;19.218;2023-04-29T11:14:15;17.40;53.77
68189;DHT22;66299;47.514;19.218;2023-04-29T11:16:50;17.40;52.45
68189;DHT22;66299;47.514;19.218;2023-04-29T11:19:21;17.12;52.59
68189;DHT22;66299;47.514;19.218;2023-04-29T11:22:09;16.83;54.29
68189;DHT22;66299;47.514;19.218;2023-04-29T11:24:49;16.98;55.43
68189;DHT22;66299;47.514;19.218;2023-04-29T11:27:20;17.42;51.80
68189;DHT22;66299;47.514;19.218;2023-04-29T11:29:51;17.69;53.01
68189;DHT22;66299;47.514;19.218;2023-04-29T11:32:31;17.93;52.44
68189;DHT22;66299;47.514;19.218;2023-04-29T11:35:07;18.30;52.07
68189;DHT22;66299;47.514;19.218;2023-04-29T11:37:39;17.87;52.86
68189;DHT22;66299;47.514;19.218;2023-04-29T11:40:08;18.05;53.10
68189;DHT22;66299;47.514;19.218;2023-04-29T11:42:40;17.84;51.64
68189;DHT22;66299;47.514;19.218;2023-04-29T11:45:09;18.34;52.77
68189;DHT22;66299;47.514;19.218;2023-04-29T11:47:41;17.98;52.77
68189;DHT22;66299;47.514;19.218;2023-04-29T11:50:11;17.77;51.80
68189;DHT22;66299;47.514;19.218;2023-04-29T11:52:41;18.05;52.39
68189;DHT22;66299;47.514;19.218;2023-04-29T11:55:16;17.83;51.90
68189;DHT22;66299;47.514;19.218;2023-04-29T11:57:48;18.35;52.37
68189;DHT22;66299;47.514;19.218;2023-04-29T12:00:21;18.23;52.66
68189;DHT22;66299;47.514;19.218;2023-04-29T12:02:54;18.83;50.75
68189;DHT22;66299;47.514;19.218;2023-04-29T12:05:26;17.93;50.28
68189;DHT22;66299;47.514;19.218;2023-04-29T12:07:56;18.30;52.47
68189;DHT22;66299;47.514;19.218;2023-04-29T12:10:27;19.90;50.74
68189;DHT22;66299;47.514;19.218;2023-04-29T12:12:57;19.34;49.00
68189;DHT22;66299;47.514;19.218;2023-04-29T12:15:27;19.19;49.43
68189;DHT22;66299;47.514;19.218;2023-04-29T12:17:58;19.48;49.02
68189;DHT22;66299;47.514;19.218;2023-04-29T12:20:31;19.86;48.90
68189;DHT22;66299;47.514;19.218;2023-04-29T12:23:10;19.65;49.52
68189;DHT22;66299;47.514;19.218;2023-04-29T12:25:41;18.44;49.65
68189;DHT22;66299;47.514;19.218;2023-04-29T12:28:11;19.83;48.15
68189;DHT22;66299;47.514;19.218;2023-04-29T12:30:40;20.60;49.15
68189;DHT22;66299;47.514;19.218;2023-04-29T12:33:17;19.99;47.60
68189;DHT22;66299;47.514;19.218;2023-04-29T12:35:50;20.47;47.50
68189;DHT22;66299;47.514;19.218;2023-04-29T12:38:21;20.95;46.35
68189;DHT22;66299;47.514;19.218;2023-04-29T12:40:50;20.73;47.34
68189;DHT22;66299;47.514;19.218;2023-04-29T12:43:18;20.23;46.86
68189;DHT22;66299;47.514;19.218;2023-04-29T12:45:51;19.95;49.44
68189;DHT22;66299;47.514;19.218;2023-04-29T12:48:27;19.74;48.00
68189;DHT22;66299;47.514;19.218;2023-04-29T12:51:00;19.47;48.57
68189;DHT22;66299;47.514;19.218;2023-04-29T12:53:31;19.54;49.17
68189;DHT22;66299;47.514;19.218;2023-04-29T12:56:00;19.85;47.40
68189;DHT22;66299;47.514;19.218;2023-04-29T12:58:28;20.19;47.83
68189;DHT22;66299;47.514;19.218;2023-04-29T13:00:58;20.05;47.55
68189;DHT22;66299;47.514;19.218;2023-04-29T13:03:30;20.23;48.12
68189;DHT22;66299;47.514;19.218;2023-04-29T13:06:01;19.61;49.01
68189;DHT22;66299;47.514;19.218;2023-04-29T13:08:30;19.82;47.91
68189;DHT22;66299;47.514;19.218;2023-04-29T13:10:59;19.09;48.51
68189;DHT22;66299;47.514;19.218;2023-04-29T13:13:27;18.17;49.93
68189;DHT22;66299;47.514;19.218;2023-04-29T13:15:57;18.63;50.31
68189;DHT22;66299;47.514;19.218;2023-04-29T13:18:26;18.48;50.49
68189;DHT22;66299;47.514;19.218;2023-04-29T13:21:00;19.07;50.08
68189;DHT22;66299;47.514;19.218;2023-04-29T13:23:29;19.13;49.95
68189;DHT22;66299;47.514;19.218;2023-04-29T13:25:59;18.62;50.30
68189;DHT22;66299;47.514;19.218;2023-04-29T13:28:29;18.38;51.35
68189;DHT22;66299;47.514;19.218;2023-04-29T13:30:57;18.49;52.12
68189;DHT22;66299;47.514;19.218;2023-04-29T13:33:25;18.03;51.37
68189;DHT22;66299;47.514;19.218;2023-04-29T13:35:54;18.07;51.57
68189;DHT22;66299;47.514;19.218;2023-04-29T13:38:25;18.18;51.81
68189;DHT22;66299;47.514;19.218;2023-04-29T13:40:54;18.63;51.87
68189;DHT22;66299;47.514;19.218;2023-04-29T13:43:22;18.71;52.09
68189;DHT22;66299;47.514;19.218;2023-04-29T13:46:04;18.71;51.11
68189;DHT22;66299;47.514;19.218;2023-04-29T13:48:35;18.52;51.59
68189;DHT22;66299;47.514;19.218;2023-04-29T13:51:08;19.40;49.36
68189;DHT22;66299;47.514;19.218;2023-04-29T13:53:41;19.50;49.65
68189;DHT22;66299;47.514;19.218;2023-04-29T13:56:30;19.24;49.77
68189;DHT22;66299;47.514;19.218;2023-04-29T13:59:03;18.79;49.80
68189;DHT22;66299;47.514;19.218;2023-04-29T14:01:34;18.79;50.83
68189;DHT22;66299;47.514;19.218;2023-04-29T14:04:24;18.79;50.63
68189;DHT22;66299;47.514;19.218;2023-04-29T14:06:53;19.04;50.81
68189;DHT22;66299;47.514;19.218;2023-04-29T14:09:22;19.03;50.97
68189;DHT22;66299;47.514;19.218;2023-04-29T14:11:52;19.58;50.11
68189;DHT22;66299;47.514;19.218;2023-04-29T14:14:23;19.16;51.93
68189;DHT22;66299;47.514;19.218;2023-04-29T14:16:54;18.83;52.99
68189;DHT22;66299;47.514;19.218;2023-04-29T14:19:21;18.65;51.59
68189;DHT22;66299;47.514;19.218;2023-04-29T14:21:50;18.88;51.12
68189;DHT22;66299;47.514;19.218;2023-04-29T14:24:19;18.83;51.24
68189;DHT22;66299;47.514;19.218;2023-04-29T14:26:52;18.77;51.36
68189;DHT22;66299;47.514;19.218;2023-04-29T14:29:25;19.04;52.03
68189;DHT22;66299;47.514;19.218;2023-04-29T14:31:53;19.13;52.17
68189;DHT22;66299;47.514;19.218;2023-04-29T14:34:34;19.28;50.90
68189;DHT22;66299;47.514;19.218;2023-04-29T14:37:04;19.44;52.08
68189;DHT22;66299;47.514;19.218;2023-04-29T14:39:35;19.14;51.36
68189;DHT22;66299;47.514;19.218;2023-04-29T14:42:05;18.88;49.98
68189;DHT22;66299;47.514;19.218;2023-04-29T14:44:35;19.04;50.75
68189;DHT22;66299;47.514;19.218;2023-04-29T14:47:05;19.14;51.06
68189;DHT22;66299;47.514;19.218;2023-04-29T14:49:34;19.02;50.20
68189;DHT22;66299;47.514;19.218;2023-04-29T14:52:03;19.10;51.80
68189;DHT22;66299;47.514;19.218;2023-04-29T14:54:33;19.13;52.61
68189;DHT22;66299;47.514;19.218;2023-04-29T14:57:03;18.99;53.44
68189;DHT22;66299;47.514;19.218;2023-04-29T14:59:34;19.16;52.21
68189;DHT22;66299;47.514;19.218;2023-04-29T15:02:06;18.89;53.45
68189;DHT22;66299;47.514;19.218;2023-04-29T15:04:36;18.96;52.90
68189;DHT22;66299;47.514;19.218;2023-04-29T15:07:05;18.68;52.20
68189;DHT22;66299;47.514;19.218;2023-04-29T15:09:37;18.55;52.63
68189;DHT22;66299;47.514;19.218;2023-04-29T15:12:08;18.77;52.47
68189;DHT22;66299;47.514;19.218;2023-04-29T15:14:40;18.47;52.20
68189;DHT22;66299;47.514;19.218;2023-04-29T15:17:09;18.75;53.20
68189;DHT22;66299;47.514;19.218;2023-04-29T15:19:37;18.86;52.83
68189;DHT22;66299;47.514;19.218;2023-04-29T15:22:06;18.69;52.68
68189;DHT22;66299;47.514;19.218;2023-04-29T15:24:38;18.73;53.72
68189;DHT22;66299;47.514;19.218;2023-04-29T15:27:09;19.04;53.20
68189;DHT22;66299;47.514;19.218;2023-04-29T15:29:39;18.98;52.69
68189;DHT22;66299;47.514;19.218;2023-04-29T15:32:08;18.92;53.08
68189;DHT22;66299;47.514;19.218;2023-04-29T15:34:37;18.96;53.42
68189;DHT22;66299;47.514;19.218;2023-04-29T15:37:06;18.98;54.47
68189;DHT22;66299;47.514;19.218;2023-04-29T15:39:34;18.34;52.88
68189;DHT22;66299;47.514;19.218;2023-04-29T15:42:03;18.56;54.16
68189;DHT22;66299;47.514;19.218;2023-04-29T15:44:33;18.42;54.12